Terminal Aerodrome Forecast
Issued by NWS Duluth, MN

Home | Current Version | Previous Version | Text Only | Print | Product List | Glossary On
Versions: 1 2 3 4 5 6 7 8 9 10 11 12 13 14 15 16 17 18 19 20 21 22 23 24 25 26 27
083
FTUS43 KDLH 250538
TAFDLH
TAF
KDLH 250538Z 2506/2606 10016KT P6SM VCSH OVC090
     FM250800 05005KT P6SM OVC070
     FM252000 06006KT P6SM VCSH OVC025
     FM260000 05009KT 5SM -RA OVC008
     FM260300 05011G20KT 2SM RA OVC003=

USA.gov is the U.S. government's official web portal to all federal, state and local government web resources and services.